sensor_id;sensor_type;location;lat;lon;timestamp;P1;durP1;ratioP1;P2;durP2;ratioP2
48199;SDS011;33990;44.602;10.976;2024-01-15T00:00:40;11.07;;;9.88;;
48199;SDS011;33990;44.602;10.976;2024-01-15T00:03:08;10.93;;;9.73;;
48199;SDS011;33990;44.602;10.976;2024-01-15T00:05:36;11.63;;;9.77;;
48199;SDS011;33990;44.602;10.976;2024-01-15T00:08:04;10.60;;;9.18;;
48199;SDS011;33990;44.602;10.976;2024-01-15T00:10:31;10.82;;;9.52;;
48199;SDS011;33990;44.602;10.976;2024-01-15T00:12:58;10.90;;;9.82;;
48199;SDS011;33990;44.602;10.976;2024-01-15T00:15:26;11.65;;;10.45;;
48199;SDS011;33990;44.602;10.976;2024-01-15T00:17:55;11.50;;;10.25;;
48199;SDS011;33990;44.602;10.976;2024-01-15T00:20:23;11.10;;;10.02;;
48199;SDS011;33990;44.602;10.976;2024-01-15T00:22:52;11.55;;;10.40;;
48199;SDS011;33990;44.602;10.976;2024-01-15T00:25:19;11.68;;;10.48;;
48199;SDS011;33990;44.602;10.976;2024-01-15T00:27:46;11.90;;;10.55;;
48199;SDS011;33990;44.602;10.976;2024-01-15T00:30:14;10.93;;;9.77;;
48199;SDS011;33990;44.602;10.976;2024-01-15T00:32:41;10.98;;;9.93;;
48199;SDS011;33990;44.602;10.976;2024-01-15T00:35:09;11.27;;;10.05;;
48199;SDS011;33990;44.602;10.976;2024-01-15T00:37:36;11.43;;;10.23;;
48199;SDS011;33990;44.602;10.976;2024-01-15T00:40:04;12.05;;;10.73;;
48199;SDS011;33990;44.602;10.976;2024-01-15T00:42:32;11.95;;;10.45;;
48199;SDS011;33990;44.602;10.976;2024-01-15T00:45:00;11.73;;;10.52;;
48199;SDS011;33990;44.602;10.976;2024-01-15T00:47:27;13.05;;;11.57;;
48199;SDS011;33990;44.602;10.976;2024-01-15T00:49:55;12.38;;;10.60;;
48199;SDS011;33990;44.602;10.976;2024-01-15T00:52:22;12.77;;;10.80;;
48199;SDS011;33990;44.602;10.976;2024-01-15T00:54:49;12.10;;;10.73;;
48199;SDS011;33990;44.602;10.976;2024-01-15T00:57:17;12.20;;;10.90;;
48199;SDS011;33990;44.602;10.976;2024-01-15T00:59:46;12.10;;;10.90;;
48199;SDS011;33990;44.602;10.976;2024-01-15T01:02:14;12.05;;;10.85;;
48199;SDS011;33990;44.602;10.976;2024-01-15T01:04:41;12.30;;;11.10;;
48199;SDS011;33990;44.602;10.976;2024-01-15T01:07:08;13.00;;;11.27;;
48199;SDS011;33990;44.602;10.976;2024-01-15T01:09:36;12.80;;;11.50;;
48199;SDS011;33990;44.602;10.976;2024-01-15T01:12:03;12.80;;;11.50;;
48199;SDS011;33990;44.602;10.976;2024-01-15T01:14:31;13.05;;;10.93;;
48199;SDS011;33990;44.602;10.976;2024-01-15T01:16:59;12.50;;;11.30;;
48199;SDS011;33990;44.602;10.976;2024-01-15T01:19:26;12.45;;;11.15;;
48199;SDS011;33990;44.602;10.976;2024-01-15T01:21:54;14.32;;;12.15;;
48199;SDS011;33990;44.602;10.976;2024-01-15T01:24:21;12.02;;;10.73;;
48199;SDS011;33990;44.602;10.976;2024-01-15T01:26:49;12.63;;;11.32;;
48199;SDS011;33990;44.602;10.976;2024-01-15T01:29:16;12.93;;;11.60;;
48199;SDS011;33990;44.602;10.976;2024-01-15T01:31:44;12.80;;;11.50;;
48199;SDS011;33990;44.602;10.976;2024-01-15T01:34:15;13.40;;;12.00;;
48199;SDS011;33990;44.602;10.976;2024-01-15T01:36:43;12.98;;;11.63;;
48199;SDS011;33990;44.602;10.976;2024-01-15T01:39:11;13.32;;;11.93;;
48199;SDS011;33990;44.602;10.976;2024-01-15T01:41:38;17.08;;;12.43;;
48199;SDS011;33990;44.602;10.976;2024-01-15T01:44:07;13.73;;;12.27;;
48199;SDS011;33990;44.602;10.976;2024-01-15T01:46:34;12.75;;;11.40;;
48199;SDS011;33990;44.602;10.976;2024-01-15T01:49:07;13.75;;;11.70;;
48199;SDS011;33990;44.602;10.976;2024-01-15T01:51:36;15.63;;;12.23;;
48199;SDS011;33990;44.602;10.976;2024-01-15T01:54:06;12.93;;;11.52;;
48199;SDS011;33990;44.602;10.976;2024-01-15T01:56:36;14.07;;;12.30;;
48199;SDS011;33990;44.602;10.976;2024-01-15T01:59:04;13.20;;;11.85;;
48199;SDS011;33990;44.602;10.976;2024-01-15T02:01:33;12.15;;;10.85;;
48199;SDS011;33990;44.602;10.976;2024-01-15T02:04:01;12.90;;;11.48;;
48199;SDS011;33990;44.602;10.976;2024-01-15T02:06:28;13.43;;;12.02;;
48199;SDS011;33990;44.602;10.976;2024-01-15T02:08:56;13.73;;;12.27;;
48199;SDS011;33990;44.602;10.976;2024-01-15T02:11:24;13.00;;;11.70;;
48199;SDS011;33990;44.602;10.976;2024-01-15T02:13:51;12.95;;;11.48;;
48199;SDS011;33990;44.602;10.976;2024-01-15T02:16:19;12.60;;;10.98;;
48199;SDS011;33990;44.602;10.976;2024-01-15T02:18:47;13.43;;;12.00;;
48199;SDS011;33990;44.602;10.976;2024-01-15T02:21:15;14.45;;;12.95;;
48199;SDS011;33990;44.602;10.976;2024-01-15T02:23:42;14.00;;;12.52;;
48199;SDS011;33990;44.602;10.976;2024-01-15T02:26:10;14.82;;;12.50;;
48199;SDS011;33990;44.602;10.976;2024-01-15T02:28:37;13.13;;;11.73;;
48199;SDS011;33990;44.602;10.976;2024-01-15T02:31:05;13.25;;;11.80;;
48199;SDS011;33990;44.602;10.976;2024-01-15T02:33:32;13.63;;;12.10;;
48199;SDS011;33990;44.602;10.976;2024-01-15T02:36:00;14.95;;;12.60;;
48199;SDS011;33990;44.602;10.976;2024-01-15T02:38:27;13.68;;;12.15;;
48199;SDS011;33990;44.602;10.976;2024-01-15T02:40:54;13.65;;;12.02;;
48199;SDS011;33990;44.602;10.976;2024-01-15T02:43:22;13.35;;;11.82;;
48199;SDS011;33990;44.602;10.976;2024-01-15T02:45:49;13.05;;;11.25;;
48199;SDS011;33990;44.602;10.976;2024-01-15T02:48:17;13.55;;;12.15;;
48199;SDS011;33990;44.602;10.976;2024-01-15T02:50:44;13.38;;;11.88;;
48199;SDS011;33990;44.602;10.976;2024-01-15T02:53:12;13.70;;;11.73;;
48199;SDS011;33990;44.602;10.976;2024-01-15T02:55:39;16.25;;;13.00;;
48199;SDS011;33990;44.602;10.976;2024-01-15T02:58:07;13.23;;;11.75;;
48199;SDS011;33990;44.602;10.976;2024-01-15T03:00:34;13.75;;;11.57;;
48199;SDS011;33990;44.602;10.976;2024-01-15T03:03:01;15.07;;;12.90;;
48199;SDS011;33990;44.602;10.976;2024-01-15T03:05:29;13.18;;;11.73;;
48199;SDS011;33990;44.602;10.976;2024-01-15T03:07:56;14.43;;;12.68;;
48199;SDS011;33990;44.602;10.976;2024-01-15T03:10:24;15.57;;;13.27;;
48199;SDS011;33990;44.602;10.976;2024-01-15T03:12:51;12.70;;;11.40;;
48199;SDS011;33990;44.602;10.976;2024-01-15T03:15:18;14.18;;;12.50;;
48199;SDS011;33990;44.602;10.976;2024-01-15T03:17:46;14.23;;;12.60;;
48199;SDS011;33990;44.602;10.976;2024-01-15T03:20:14;13.65;;;11.63;;
48199;SDS011;33990;44.602;10.976;2024-01-15T03:22:41;13.77;;;12.35;;
48199;SDS011;33990;44.602;10.976;2024-01-15T03:25:09;12.63;;;11.25;;
48199;SDS011;33990;44.602;10.976;2024-01-15T03:27:36;14.23;;;12.57;;
48199;SDS011;33990;44.602;10.976;2024-01-15T03:30:03;13.90;;;12.38;;
48199;SDS011;33990;44.602;10.976;2024-01-15T03:32:32;13.13;;;11.73;;
48199;SDS011;33990;44.602;10.976;2024-01-15T03:34:59;14.23;;;12.73;;
48199;SDS011;33990;44.602;10.976;2024-01-15T03:37:27;16.30;;;12.70;;
48199;SDS011;33990;44.602;10.976;2024-01-15T03:39:55;14.68;;;12.90;;
48199;SDS011;33990;44.602;10.976;2024-01-15T03:42:22;14.02;;;12.55;;
48199;SDS011;33990;44.602;10.976;2024-01-15T03:44:49;14.77;;;12.70;;
48199;SDS011;33990;44.602;10.976;2024-01-15T03:47:17;15.77;;;12.55;;
48199;SDS011;33990;44.602;10.976;2024-01-15T03:49:44;14.43;;;12.93;;
48199;SDS011;33990;44.602;10.976;2024-01-15T03:52:12;15.00;;;12.88;;
48199;SDS011;33990;44.602;10.976;2024-01-15T03:54:39;13.90;;;12.10;;
48199;SDS011;33990;44.602;10.976;2024-01-15T03:57:06;14.60;;;12.73;;
48199;SDS011;33990;44.602;10.976;2024-01-15T03:59:34;14.93;;;12.88;;
48199;SDS011;33990;44.602;10.976;2024-01-15T04:02:01;14.10;;;12.40;;
48199;SDS011;33990;44.602;10.976;2024-01-15T04:04:28;14.60;;;12.95;;
48199;SDS011;33990;44.602;10.976;2024-01-15T04:06:56;15.07;;;13.00;;
48199;SDS011;33990;44.602;10.976;2024-01-15T04:09:23;12.90;;;11.55;;
48199;SDS011;33990;44.602;10.976;2024-01-15T04:11:51;14.70;;;12.98;;
48199;SDS011;33990;44.602;10.976;2024-01-15T04:14:18;14.38;;;12.40;;
48199;SDS011;33990;44.602;10.976;2024-01-15T04:16:45;13.82;;;12.23;;
48199;SDS011;33990;44.602;10.976;2024-01-15T04:19:13;14.80;;;13.02;;
48199;SDS011;33990;44.602;10.976;2024-01-15T04:21:40;14.25;;;12.75;;
48199;SDS011;33990;44.602;10.976;2024-01-15T04:24:08;14.20;;;12.70;;
48199;SDS011;33990;44.602;10.976;2024-01-15T04:26:35;13.60;;;12.20;;
48199;SDS011;33990;44.602;10.976;2024-01-15T04:29:03;14.88;;;12.95;;
48199;SDS011;33990;44.602;10.976;2024-01-15T04:31:30;14.85;;;12.93;;
48199;SDS011;33990;44.602;10.976;2024-01-15T04:33:58;16.20;;;12.57;;
48199;SDS011;33990;44.602;10.976;2024-01-15T04:36:25;13.70;;;11.95;;
48199;SDS011;33990;44.602;10.976;2024-01-15T04:38:52;13.80;;;12.40;;
48199;SDS011;33990;44.602;10.976;2024-01-15T04:41:20;13.93;;;12.52;;
48199;SDS011;33990;44.602;10.976;2024-01-15T04:43:48;15.40;;;13.38;;
48199;SDS011;33990;44.602;10.976;2024-01-15T04:46:16;13.73;;;12.27;;
48199;SDS011;33990;44.602;10.976;2024-01-15T04:48:43;13.73;;;12.38;;
48199;SDS011;33990;44.602;10.976;2024-01-15T04:51:10;13.93;;;12.15;;
48199;SDS011;33990;44.602;10.976;2024-01-15T04:53:38;14.65;;;13.10;;
48199;SDS011;33990;44.602;10.976;2024-01-15T04:56:05;15.73;;;12.70;;
48199;SDS011;33990;44.602;10.976;2024-01-15T04:58:33;14.43;;;12.45;;
48199;SDS011;33990;44.602;10.976;2024-01-15T05:01:00;16.02;;;13.35;;
48199;SDS011;33990;44.602;10.976;2024-01-15T05:03:27;13.63;;;12.18;;
48199;SDS011;33990;44.602;10.976;2024-01-15T05:05:55;13.85;;;12.25;;
48199;SDS011;33990;44.602;10.976;2024-01-15T05:08:22;13.98;;;12.02;;
48199;SDS011;33990;44.602;10.976;2024-01-15T05:10:50;12.35;;;11.05;;
48199;SDS011;33990;44.602;10.976;2024-01-15T05:13:17;13.40;;;12.02;;
48199;SDS011;33990;44.602;10.976;2024-01-15T05:15:44;13.82;;;12.38;;
48199;SDS011;33990;44.602;10.976;2024-01-15T05:18:12;15.70;;;13.13;;
48199;SDS011;33990;44.602;10.976;2024-01-15T05:20:40;14.45;;;12.90;;
48199;SDS011;33990;44.602;10.976;2024-01-15T05:23:07;15.77;;;13.80;;
48199;SDS011;33990;44.602;10.976;2024-01-15T05:25:35;15.30;;;12.85;;
48199;SDS011;33990;44.602;10.976;2024-01-15T05:28:02;13.30;;;11.82;;
48199;SDS011;33990;44.602;10.976;2024-01-15T05:30:29;13.65;;;11.82;;
48199;SDS011;33990;44.602;10.976;2024-01-15T05:32:57;15.73;;;13.13;;
48199;SDS011;33990;44.602;10.976;2024-01-15T05:35:24;13.48;;;11.63;;
48199;SDS011;33990;44.602;10.976;2024-01-15T05:37:52;12.25;;;10.70;;
48199;SDS011;33990;44.602;10.976;2024-01-15T05:40:19;12.85;;;11.40;;
48199;SDS011;33990;44.602;10.976;2024-01-15T05:42:47;16.00;;;13.32;;
48199;SDS011;33990;44.602;10.976;2024-01-15T05:45:14;12.68;;;11.38;;
48199;SDS011;33990;44.602;10.976;2024-01-15T05:47:42;14.15;;;11.60;;
48199;SDS011;33990;44.602;10.976;2024-01-15T05:50:10;12.82;;;11.50;;
48199;SDS011;33990;44.602;10.976;2024-01-15T05:52:40;13.50;;;12.13;;
48199;SDS011;33990;44.602;10.976;2024-01-15T05:55:08;13.43;;;12.00;;
48199;SDS011;33990;44.602;10.976;2024-01-15T05:57:36;13.43;;;12.05;;
48199;SDS011;33990;44.602;10.976;2024-01-15T06:00:04;15.05;;;11.75;;
48199;SDS011;33990;44.602;10.976;2024-01-15T06:02:32;12.68;;;11.25;;
48199;SDS011;33990;44.602;10.976;2024-01-15T06:04:59;13.82;;;12.05;;
48199;SDS011;33990;44.602;10.976;2024-01-15T06:07:28;13.07;;;11.52;;
48199;SDS011;33990;44.602;10.976;2024-01-15T06:09:56;12.02;;;10.70;;
48199;SDS011;33990;44.602;10.976;2024-01-15T06:12:24;12.45;;;11.15;;
48199;SDS011;33990;44.602;10.976;2024-01-15T06:14:51;13.23;;;11.32;;
48199;SDS011;33990;44.602;10.976;2024-01-15T06:17:19;14.55;;;11.98;;
48199;SDS011;33990;44.602;10.976;2024-01-15T06:19:46;12.40;;;11.10;;
48199;SDS011;33990;44.602;10.976;2024-01-15T06:22:15;12.73;;;11.43;;
48199;SDS011;33990;44.602;10.976;2024-01-15T06:24:43;13.90;;;11.15;;
48199;SDS011;33990;44.602;10.976;2024-01-15T06:27:10;13.05;;;11.50;;
48199;SDS011;33990;44.602;10.976;2024-01-15T06:29:38;12.10;;;10.80;;
48199;SDS011;33990;44.602;10.976;2024-01-15T06:32:06;11.77;;;10.52;;
48199;SDS011;33990;44.602;10.976;2024-01-15T06:34:33;12.02;;;10.73;;
48199;SDS011;33990;44.602;10.976;2024-01-15T06:37:01;11.45;;;10.35;;
48199;SDS011;33990;44.602;10.976;2024-01-15T06:39:28;12.13;;;10.82;;
48199;SDS011;33990;44.602;10.976;2024-01-15T06:41:56;12.63;;;11.02;;
48199;SDS011;33990;44.602;10.976;2024-01-15T06:44:24;12.15;;;10.90;;
48199;SDS011;33990;44.602;10.976;2024-01-15T06:46:51;12.10;;;10.90;;
48199;SDS011;33990;44.602;10.976;2024-01-15T06:49:18;12.15;;;10.95;;
48199;SDS011;33990;44.602;10.976;2024-01-15T06:51:46;12.82;;;11.20;;
48199;SDS011;33990;44.602;10.976;2024-01-15T06:54:15;13.88;;;11.68;;
48199;SDS011;33990;44.602;10.976;2024-01-15T06:56:43;12.85;;;11.45;;
48199;SDS011;33990;44.602;10.976;2024-01-15T06:59:10;12.48;;;10.88;;
48199;SDS011;33990;44.602;10.976;2024-01-15T07:01:37;12.43;;;11.07;;
48199;SDS011;33990;44.602;10.976;2024-01-15T07:04:05;12.48;;;11.07;;
48199;SDS011;33990;44.602;10.976;2024-01-15T07:06:32;12.38;;;11.07;;
48199;SDS011;33990;44.602;10.976;2024-01-15T07:09:00;12.23;;;10.93;;
48199;SDS011;33990;44.602;10.976;2024-01-15T07:11:27;12.02;;;10.48;;
48199;SDS011;33990;44.602;10.976;2024-01-15T07:13:54;12.60;;;11.27;;
48199;SDS011;33990;44.602;10.976;2024-01-15T07:16:22;11.60;;;10.32;;
48199;SDS011;33990;44.602;10.976;2024-01-15T07:19:04;11.80;;;10.18;;
48199;SDS011;33990;44.602;10.976;2024-01-15T07:21:31;12.02;;;10.77;;
48199;SDS011;33990;44.602;10.976;2024-01-15T07:23:59;11.88;;;10.68;;
48199;SDS011;33990;44.602;10.976;2024-01-15T07:26:26;12.02;;;10.73;;
48199;SDS011;33990;44.602;10.976;2024-01-15T07:28:54;11.57;;;10.38;;
48199;SDS011;33990;44.602;10.976;2024-01-15T07:31:21;12.40;;;10.77;;
48199;SDS011;33990;44.602;10.976;2024-01-15T07:33:48;12.43;;;10.70;;
48199;SDS011;33990;44.602;10.976;2024-01-15T07:36:16;12.88;;;11.52;;
48199;SDS011;33990;44.602;10.976;2024-01-15T07:38:43;12.13;;;10.90;;
48199;SDS011;33990;44.602;10.976;2024-01-15T07:41:11;12.77;;;11.20;;
48199;SDS011;33990;44.602;10.976;2024-01-15T07:43:39;12.48;;;10.98;;
48199;SDS011;33990;44.602;10.976;2024-01-15T07:46:06;12.05;;;10.75;;
48199;SDS011;33990;44.602;10.976;2024-01-15T07:48:34;12.80;;;11.00;;
48199;SDS011;33990;44.602;10.976;2024-01-15T07:51:02;11.57;;;10.35;;
48199;SDS011;33990;44.602;10.976;2024-01-15T07:53:31;15.63;;;11.48;;
48199;SDS011;33990;44.602;10.976;2024-01-15T07:55:58;13.13;;;11.77;;
48199;SDS011;33990;44.602;10.976;2024-01-15T07:58:25;15.07;;;13.63;;
48199;SDS011;33990;44.602;10.976;2024-01-15T08:00:53;20.45;;;18.23;;
48199;SDS011;33990;44.602;10.976;2024-01-15T08:03:20;21.23;;;18.58;;
48199;SDS011;33990;44.602;10.976;2024-01-15T08:05:48;23.25;;;20.75;;
48199;SDS011;33990;44.602;10.976;2024-01-15T08:08:19;21.40;;;19.17;;
48199;SDS011;33990;44.602;10.976;2024-01-15T08:10:48;17.13;;;15.43;;
48199;SDS011;33990;44.602;10.976;2024-01-15T08:13:16;16.45;;;14.68;;
48199;SDS011;33990;44.602;10.976;2024-01-15T08:15:43;17.23;;;15.43;;
48199;SDS011;33990;44.602;10.976;2024-01-15T08:18:11;18.88;;;15.75;;
48199;SDS011;33990;44.602;10.976;2024-01-15T08:20:39;16.75;;;14.98;;
48199;SDS011;33990;44.602;10.976;2024-01-15T08:23:08;17.10;;;15.20;;
48199;SDS011;33990;44.602;10.976;2024-01-15T08:25:36;15.88;;;14.23;;
48199;SDS011;33990;44.602;10.976;2024-01-15T08:28:04;16.42;;;14.73;;
48199;SDS011;33990;44.602;10.976;2024-01-15T08:30:31;15.77;;;14.18;;
48199;SDS011;33990;44.602;10.976;2024-01-15T08:32:59;16.92;;;15.13;;
48199;SDS011;33990;44.602;10.976;2024-01-15T08:35:37;15.85;;;14.15;;
48199;SDS011;33990;44.602;10.976;2024-01-15T08:38:04;16.20;;;14.50;;
48199;SDS011;33990;44.602;10.976;2024-01-15T08:40:32;16.05;;;13.82;;
48199;SDS011;33990;44.602;10.976;2024-01-15T08:43:00;14.88;;;12.98;;
48199;SDS011;33990;44.602;10.976;2024-01-15T08:45:29;15.10;;;13.50;;
48199;SDS011;33990;44.602;10.976;2024-01-15T08:47:58;16.15;;;14.50;;
48199;SDS011;33990;44.602;10.976;2024-01-15T08:50:26;14.93;;;13.43;;
48199;SDS011;33990;44.602;10.976;2024-01-15T08:52:53;16.30;;;14.63;;
48199;SDS011;33990;44.602;10.976;2024-01-15T08:55:21;14.50;;;13.10;;
48199;SDS011;33990;44.602;10.976;2024-01-15T08:57:49;15.05;;;12.98;;
48199;SDS011;33990;44.602;10.976;2024-01-15T09:00:17;14.45;;;12.95;;
48199;SDS011;33990;44.602;10.976;2024-01-15T09:02:45;15.63;;;13.95;;
48199;SDS011;33990;44.602;10.976;2024-01-15T09:05:12;14.95;;;13.35;;
48199;SDS011;33990;44.602;10.976;2024-01-15T09:07:41;15.55;;;13.43;;
48199;SDS011;33990;44.602;10.976;2024-01-15T09:10:09;16.10;;;13.02;;
48199;SDS011;33990;44.602;10.976;2024-01-15T09:12:36;14.18;;;12.68;;
48199;SDS011;33990;44.602;10.976;2024-01-15T09:15:04;15.10;;;13.57;;
48199;SDS011;33990;44.602;10.976;2024-01-15T09:17:32;15.18;;;13.57;;
48199;SDS011;33990;44.602;10.976;2024-01-15T09:19:59;14.82;;;13.25;;
48199;SDS011;33990;44.602;10.976;2024-01-15T09:22:28;14.02;;;12.65;;
48199;SDS011;33990;44.602;10.976;2024-01-15T09:24:55;14.48;;;12.82;;
48199;SDS011;33990;44.602;10.976;2024-01-15T09:27:23;14.20;;;12.70;;
48199;SDS011;33990;44.602;10.976;2024-01-15T09:29:50;14.48;;;13.00;;
48199;SDS011;33990;44.602;10.976;2024-01-15T09:32:17;14.63;;;12.75;;
48199;SDS011;33990;44.602;10.976;2024-01-15T09:34:45;13.93;;;12.05;;
48199;SDS011;33990;44.602;10.976;2024-01-15T09:37:14;13.40;;;12.02;;
48199;SDS011;33990;44.602;10.976;2024-01-15T09:40:01;14.15;;;12.68;;
48199;SDS011;33990;44.602;10.976;2024-01-15T09:42:29;14.73;;;12.95;;
48199;SDS011;33990;44.602;10.976;2024-01-15T09:44:57;15.02;;;12.50;;
48199;SDS011;33990;44.602;10.976;2024-01-15T09:47:25;13.68;;;12.32;;
48199;SDS011;33990;44.602;10.976;2024-01-15T09:49:52;13.68;;;12.27;;
48199;SDS011;33990;44.602;10.976;2024-01-15T09:52:20;14.90;;;12.63;;
48199;SDS011;33990;44.602;10.976;2024-01-15T09:54:48;14.02;;;12.63;;
48199;SDS011;33990;44.602;10.976;2024-01-15T09:57:17;13.82;;;12.30;;
48199;SDS011;33990;44.602;10.976;2024-01-15T09:59:44;14.50;;;12.93;;
48199;SDS011;33990;44.602;10.976;2024-01-15T10:02:14;12.93;;;11.63;;
48199;SDS011;33990;44.602;10.976;2024-01-15T10:04:45;14.52;;;13.02;;
48199;SDS011;33990;44.602;10.976;2024-01-15T10:07:14;12.90;;;11.63;;
48199;SDS011;33990;44.602;10.976;2024-01-15T10:09:46;12.82;;;11.52;;
48199;SDS011;33990;44.602;10.976;2024-01-15T10:12:14;13.70;;;12.30;;
48199;SDS011;33990;44.602;10.976;2024-01-15T10:14:42;12.50;;;11.27;;
48199;SDS011;33990;44.602;10.976;2024-01-15T10:17:13;13.55;;;12.15;;
48199;SDS011;33990;44.602;10.976;2024-01-15T10:19:47;12.88;;;11.50;;
48199;SDS011;33990;44.602;10.976;2024-01-15T10:22:16;13.73;;;11.95;;
48199;SDS011;33990;44.602;10.976;2024-01-15T10:24:47;13.07;;;11.77;;
48199;SDS011;33990;44.602;10.976;2024-01-15T10:27:15;14.52;;;11.05;;
48199;SDS011;33990;44.602;10.976;2024-01-15T10:29:43;13.20;;;11.38;;
48199;SDS011;33990;44.602;10.976;2024-01-15T10:32:11;13.18;;;11.80;;
48199;SDS011;33990;44.602;10.976;2024-01-15T10:34:39;12.10;;;10.90;;
48199;SDS011;33990;44.602;10.976;2024-01-15T10:37:09;12.52;;;11.32;;
48199;SDS011;33990;44.602;10.976;2024-01-15T10:39:36;12.32;;;11.07;;
48199;SDS011;33990;44.602;10.976;2024-01-15T10:42:05;12.48;;;11.18;;
48199;SDS011;33990;44.602;10.976;2024-01-15T10:44:34;13.82;;;12.27;;
48199;SDS011;33990;44.602;10.976;2024-01-15T10:47:03;13.68;;;12.27;;
48199;SDS011;33990;44.602;10.976;2024-01-15T10:49:31;11.95;;;10.75;;
48199;SDS011;33990;44.602;10.976;2024-01-15T10:52:01;12.90;;;11.25;;
48199;SDS011;33990;44.602;10.976;2024-01-15T10:54:29;13.57;;;11.77;;
48199;SDS011;33990;44.602;10.976;2024-01-15T10:56:57;13.40;;;11.43;;
48199;SDS011;33990;44.602;10.976;2024-01-15T10:59:25;12.73;;;11.27;;
48199;SDS011;33990;44.602;10.976;2024-01-15T11:01:52;12.82;;;11.48;;
48199;SDS011;33990;44.602;10.976;2024-01-15T11:04:22;12.57;;;11.27;;
48199;SDS011;33990;44.602;10.976;2024-01-15T11:06:52;12.52;;;11.23;;
48199;SDS011;33990;44.602;10.976;2024-01-15T11:09:24;13.13;;;11.07;;
48199;SDS011;33990;44.602;10.976;2024-01-15T11:11:52;12.52;;;10.98;;
48199;SDS011;33990;44.602;10.976;2024-01-15T11:14:35;13.30;;;11.90;;
48199;SDS011;33990;44.602;10.976;2024-01-15T11:17:05;13.15;;;11.05;;
48199;SDS011;33990;44.602;10.976;2024-01-15T11:22:08;11.93;;;10.57;;
48199;SDS011;33990;44.602;10.976;2024-01-15T11:24:37;11.90;;;10.70;;
48199;SDS011;33990;44.602;10.976;2024-01-15T11:27:07;12.60;;;10.70;;
48199;SDS011;33990;44.602;10.976;2024-01-15T11:29:36;13.00;;;11.65;;
48199;SDS011;33990;44.602;10.976;2024-01-15T11:32:13;12.57;;;11.32;;
48199;SDS011;33990;44.602;10.976;2024-01-15T11:37:27;11.68;;;10.48;;
48199;SDS011;33990;44.602;10.976;2024-01-15T11:40:02;12.50;;;11.20;;
48199;SDS011;33990;44.602;10.976;2024-01-15T11:42:38;12.93;;;11.57;;
48199;SDS011;33990;44.602;10.976;2024-01-15T11:45:05;12.50;;;11.00;;
48199;SDS011;33990;44.602;10.976;2024-01-15T11:50:21;12.27;;;11.05;;
48199;SDS011;33990;44.602;10.976;2024-01-15T11:53:01;11.38;;;10.27;;
48199;SDS011;33990;44.602;10.976;2024-01-15T11:55:34;12.38;;;11.18;;
48199;SDS011;33990;44.602;10.976;2024-01-15T11:58:04;13.85;;;11.52;;
48199;SDS011;33990;44.602;10.976;2024-01-15T12:00:39;12.10;;;10.87;;
48199;SDS011;33990;44.602;10.976;2024-01-15T12:03:14;11.80;;;10.60;;
48199;SDS011;33990;44.602;10.976;2024-01-15T12:05:41;11.52;;;10.27;;
48199;SDS011;33990;44.602;10.976;2024-01-15T12:08:09;12.25;;;11.02;;
48199;SDS011;33990;44.602;10.976;2024-01-15T12:13:11;11.13;;;10.02;;
48199;SDS011;33990;44.602;10.976;2024-01-15T12:15:41;10.80;;;9.70;;
48199;SDS011;33990;44.602;10.976;2024-01-15T12:18:11;10.80;;;9.73;;
48199;SDS011;33990;44.602;10.976;2024-01-15T12:20:40;11.85;;;10.63;;
48199;SDS011;33990;44.602;10.976;2024-01-15T12:23:09;10.73;;;9.63;;
48199;SDS011;33990;44.602;10.976;2024-01-15T12:25:37;11.35;;;10.25;;
48199;SDS011;33990;44.602;10.976;2024-01-15T12:28:05;10.73;;;9.63;;
48199;SDS011;33990;44.602;10.976;2024-01-15T12:30:34;10.25;;;9.25;;
48199;SDS011;33990;44.602;10.976;2024-01-15T12:33:03;11.23;;;10.00;;
48199;SDS011;33990;44.602;10.976;2024-01-15T12:35:33;10.90;;;9.23;;
48199;SDS011;33990;44.602;10.976;2024-01-15T12:38:01;11.82;;;10.35;;
48199;SDS011;33990;44.602;10.976;2024-01-15T12:40:32;11.27;;;10.18;;
48199;SDS011;33990;44.602;10.976;2024-01-15T12:43:07;12.00;;;10.27;;
48199;SDS011;33990;44.602;10.976;2024-01-15T12:45:35;10.55;;;9.45;;
48199;SDS011;33990;44.602;10.976;2024-01-15T12:48:05;11.20;;;10.02;;
48199;SDS011;33990;44.602;10.976;2024-01-15T12:50:33;10.38;;;9.20;;
48199;SDS011;33990;44.602;10.976;2024-01-15T12:53:01;11.43;;;10.32;;
48199;SDS011;33990;44.602;10.976;2024-01-15T12:55:29;10.13;;;9.07;;
48199;SDS011;33990;44.602;10.976;2024-01-15T12:57:56;11.52;;;10.32;;
48199;SDS011;33990;44.602;10.976;2024-01-15T13:00:24;10.60;;;9.50;;
48199;SDS011;33990;44.602;10.976;2024-01-15T13:02:53;10.30;;;8.68;;
48199;SDS011;33990;44.602;10.976;2024-01-15T13:05:22;10.27;;;9.18;;
48199;SDS011;33990;44.602;10.976;2024-01-15T13:07:50;11.52;;;10.32;;
48199;SDS011;33990;44.602;10.976;2024-01-15T13:10:18;10.63;;;9.55;;
48199;SDS011;33990;44.602;10.976;2024-01-15T13:12:45;11.00;;;9.93;;
48199;SDS011;33990;44.602;10.976;2024-01-15T13:15:13;10.65;;;9.35;;
48199;SDS011;33990;44.602;10.976;2024-01-15T13:17:42;10.73;;;9.63;;
48199;SDS011;33990;44.602;10.976;2024-01-15T13:20:11;10.48;;;9.40;;
48199;SDS011;33990;44.602;10.976;2024-01-15T13:22:40;10.90;;;9.80;;
48199;SDS011;33990;44.602;10.976;2024-01-15T13:25:11;10.75;;;9.65;;
48199;SDS011;33990;44.602;10.976;2024-01-15T13:27:39;10.38;;;9.27;;
48199;SDS011;33990;44.602;10.976;2024-01-15T13:30:08;10.50;;;9.40;;
48199;SDS011;33990;44.602;10.976;2024-01-15T13:32:37;10.70;;;9.60;;
48199;SDS011;33990;44.602;10.976;2024-01-15T13:35:05;10.23;;;9.23;;
48199;SDS011;33990;44.602;10.976;2024-01-15T13:37:36;10.25;;;9.25;;
48199;SDS011;33990;44.602;10.976;2024-01-15T13:40:05;10.13;;;9.13;;
48199;SDS011;33990;44.602;10.976;2024-01-15T13:42:35;10.30;;;9.32;;
48199;SDS011;33990;44.602;10.976;2024-01-15T13:45:05;10.57;;;8.98;;
48199;SDS011;33990;44.602;10.976;2024-01-15T13:47:34;10.93;;;9.57;;
48199;SDS011;33990;44.602;10.976;2024-01-15T13:50:02;11.32;;;10.02;;
48199;SDS011;33990;44.602;10.976;2024-01-15T13:52:30;9.32;;;8.43;;
48199;SDS011;33990;44.602;10.976;2024-01-15T13:54:58;10.85;;;9.75;;
48199;SDS011;33990;44.602;10.976;2024-01-15T13:57:25;10.43;;;9.43;;
48199;SDS011;33990;44.602;10.976;2024-01-15T13:59:54;10.68;;;9.68;;
48199;SDS011;33990;44.602;10.976;2024-01-15T14:02:22;11.00;;;9.55;;
48199;SDS011;33990;44.602;10.976;2024-01-15T14:04:51;10.77;;;9.52;;
48199;SDS011;33990;44.602;10.976;2024-01-15T14:07:18;10.98;;;9.43;;
48199;SDS011;33990;44.602;10.976;2024-01-15T14:09:46;13.63;;;10.13;;
48199;SDS011;33990;44.602;10.976;2024-01-15T14:12:13;11.93;;;9.30;;
48199;SDS011;33990;44.602;10.976;2024-01-15T14:14:41;11.07;;;9.98;;
48199;SDS011;33990;44.602;10.976;2024-01-15T14:17:09;10.48;;;9.45;;
48199;SDS011;33990;44.602;10.976;2024-01-15T14:19:36;10.18;;;9.18;;
48199;SDS011;33990;44.602;10.976;2024-01-15T14:22:04;10.10;;;9.05;;
48199;SDS011;33990;44.602;10.976;2024-01-15T14:24:31;11.35;;;10.00;;
48199;SDS011;33990;44.602;10.976;2024-01-15T14:26:59;10.13;;;9.13;;